sensor_id;sensor_type;location;lat;lon;timestamp;P1;durP1;ratioP1;P2;durP2;ratioP2
2119;SDS011;1066;52.540;13.420;2023-02-15T00:01:13;26.17;;;19.30;;
2119;SDS011;1066;52.540;13.420;2023-02-15T00:03:38;25.17;;;19.30;;
2119;SDS011;1066;52.540;13.420;2023-02-15T00:06:04;26.90;;;19.00;;
2119;SDS011;1066;52.540;13.420;2023-02-15T00:08:29;26.03;;;20.30;;
2119;SDS011;1066;52.540;13.420;2023-02-15T00:11:07;26.23;;;19.97;;
2119;SDS011;1066;52.540;13.420;2023-02-15T00:13:33;25.00;;;18.97;;
2119;SDS011;1066;52.540;13.420;2023-02-15T00:16:03;28.30;;;19.47;;
2119;SDS011;1066;52.540;13.420;2023-02-15T00:18:29;28.60;;;20.47;;
2119;SDS011;1066;52.540;13.420;2023-02-15T00:20:55;23.40;;;20.40;;
2119;SDS011;1066;52.540;13.420;2023-02-15T00:23:20;25.90;;;19.73;;
2119;SDS011;1066;52.540;13.420;2023-02-15T00:25:45;27.10;;;20.33;;
2119;SDS011;1066;52.540;13.420;2023-02-15T00:28:11;25.33;;;20.27;;
2119;SDS011;1066;52.540;13.420;2023-02-15T00:30:36;25.30;;;19.03;;
2119;SDS011;1066;52.540;13.420;2023-02-15T00:33:01;23.60;;;19.37;;
2119;SDS011;1066;52.540;13.420;2023-02-15T00:35:26;26.27;;;19.30;;
2119;SDS011;1066;52.540;13.420;2023-02-15T00:37:51;25.90;;;19.47;;
2119;SDS011;1066;52.540;13.420;2023-02-15T00:40:18;24.00;;;19.30;;
2119;SDS011;1066;52.540;13.420;2023-02-15T00:42:43;22.73;;;19.63;;
2119;SDS011;1066;52.540;13.420;2023-02-15T00:45:09;25.70;;;19.53;;
2119;SDS011;1066;52.540;13.420;2023-02-15T00:47:34;25.23;;;20.10;;
2119;SDS011;1066;52.540;13.420;2023-02-15T00:49:59;24.97;;;19.90;;
2119;SDS011;1066;52.540;13.420;2023-02-15T00:52:24;24.70;;;18.17;;
2119;SDS011;1066;52.540;13.420;2023-02-15T00:54:49;24.30;;;18.80;;
2119;SDS011;1066;52.540;13.420;2023-02-15T00:57:15;25.70;;;19.27;;
2119;SDS011;1066;52.540;13.420;2023-02-15T00:59:40;28.47;;;20.07;;
2119;SDS011;1066;52.540;13.420;2023-02-15T01:02:05;26.60;;;20.50;;
2119;SDS011;1066;52.540;13.420;2023-02-15T01:04:30;24.60;;;20.10;;
2119;SDS011;1066;52.540;13.420;2023-02-15T01:06:55;23.03;;;18.60;;
2119;SDS011;1066;52.540;13.420;2023-02-15T01:09:21;26.23;;;19.40;;
2119;SDS011;1066;52.540;13.420;2023-02-15T01:11:47;32.00;;;18.53;;
2119;SDS011;1066;52.540;13.420;2023-02-15T01:14:12;24.27;;;19.23;;
2119;SDS011;1066;52.540;13.420;2023-02-15T01:16:38;27.33;;;20.57;;
2119;SDS011;1066;52.540;13.420;2023-02-15T01:19:03;24.60;;;18.63;;
2119;SDS011;1066;52.540;13.420;2023-02-15T01:21:28;27.47;;;20.63;;
2119;SDS011;1066;52.540;13.420;2023-02-15T01:23:54;25.17;;;19.70;;
2119;SDS011;1066;52.540;13.420;2023-02-15T01:26:19;26.90;;;18.33;;
2119;SDS011;1066;52.540;13.420;2023-02-15T01:28:44;25.97;;;21.13;;
2119;SDS011;1066;52.540;13.420;2023-02-15T01:31:11;25.37;;;19.73;;
2119;SDS011;1066;52.540;13.420;2023-02-15T01:33:37;26.33;;;21.27;;
2119;SDS011;1066;52.540;13.420;2023-02-15T01:36:02;25.20;;;19.47;;
2119;SDS011;1066;52.540;13.420;2023-02-15T01:38:28;25.97;;;20.53;;
2119;SDS011;1066;52.540;13.420;2023-02-15T01:40:53;31.60;;;22.30;;
2119;SDS011;1066;52.540;13.420;2023-02-15T01:43:42;29.33;;;20.30;;
2119;SDS011;1066;52.540;13.420;2023-02-15T01:46:08;29.33;;;20.53;;
2119;SDS011;1066;52.540;13.420;2023-02-15T01:48:34;29.00;;;21.83;;
2119;SDS011;1066;52.540;13.420;2023-02-15T01:51:05;25.87;;;20.23;;
2119;SDS011;1066;52.540;13.420;2023-02-15T01:53:34;24.47;;;19.47;;
2119;SDS011;1066;52.540;13.420;2023-02-15T01:56:05;28.00;;;20.40;;
2119;SDS011;1066;52.540;13.420;2023-02-15T01:58:31;35.27;;;22.93;;
2119;SDS011;1066;52.540;13.420;2023-02-15T02:01:00;25.00;;;20.70;;
2119;SDS011;1066;52.540;13.420;2023-02-15T02:06:12;30.93;;;21.77;;
2119;SDS011;1066;52.540;13.420;2023-02-15T02:08:37;33.50;;;21.70;;
2119;SDS011;1066;52.540;13.420;2023-02-15T02:11:04;25.70;;;19.83;;
2119;SDS011;1066;52.540;13.420;2023-02-15T02:13:34;28.10;;;21.97;;
2119;SDS011;1066;52.540;13.420;2023-02-15T02:16:16;31.67;;;22.37;;
2119;SDS011;1066;52.540;13.420;2023-02-15T02:21:24;28.00;;;20.30;;
2119;SDS011;1066;52.540;13.420;2023-02-15T02:24:17;31.90;;;22.20;;
2119;SDS011;1066;52.540;13.420;2023-02-15T02:34:27;27.83;;;21.47;;
2119;SDS011;1066;52.540;13.420;2023-02-15T02:37:03;29.10;;;21.67;;
2119;SDS011;1066;52.540;13.420;2023-02-15T02:39:43;32.17;;;23.07;;
2119;SDS011;1066;52.540;13.420;2023-02-15T02:44:46;31.30;;;21.90;;
2119;SDS011;1066;52.540;13.420;2023-02-15T02:47:17;29.13;;;22.87;;
2119;SDS011;1066;52.540;13.420;2023-02-15T02:49:44;30.10;;;23.10;;
2119;SDS011;1066;52.540;13.420;2023-02-15T02:54:54;27.67;;;22.43;;
2119;SDS011;1066;52.540;13.420;2023-02-15T02:57:20;32.40;;;22.10;;
2119;SDS011;1066;52.540;13.420;2023-02-15T02:59:57;30.60;;;22.90;;
2119;SDS011;1066;52.540;13.420;2023-02-15T03:02:24;30.53;;;23.17;;
2119;SDS011;1066;52.540;13.420;2023-02-15T03:04:53;29.50;;;23.77;;
2119;SDS011;1066;52.540;13.420;2023-02-15T03:07:23;33.30;;;24.57;;
2119;SDS011;1066;52.540;13.420;2023-02-15T03:09:50;38.30;;;25.30;;
2119;SDS011;1066;52.540;13.420;2023-02-15T03:14:41;35.90;;;25.30;;
2119;SDS011;1066;52.540;13.420;2023-02-15T03:17:09;36.63;;;26.40;;
2119;SDS011;1066;52.540;13.420;2023-02-15T03:19:36;37.60;;;26.90;;
2119;SDS011;1066;52.540;13.420;2023-02-15T03:24:48;38.47;;;28.13;;
2119;SDS011;1066;52.540;13.420;2023-02-15T03:27:15;40.87;;;27.53;;
2119;SDS011;1066;52.540;13.420;2023-02-15T03:29:45;36.93;;;27.27;;
2119;SDS011;1066;52.540;13.420;2023-02-15T03:32:11;46.90;;;28.50;;
2119;SDS011;1066;52.540;13.420;2023-02-15T03:34:37;36.87;;;27.10;;
2119;SDS011;1066;52.540;13.420;2023-02-15T03:37:08;42.60;;;29.60;;
2119;SDS011;1066;52.540;13.420;2023-02-15T03:39:38;38.70;;;28.13;;
2119;SDS011;1066;52.540;13.420;2023-02-15T03:44:33;40.70;;;27.67;;
2119;SDS011;1066;52.540;13.420;2023-02-15T03:47:04;41.43;;;28.90;;
2119;SDS011;1066;52.540;13.420;2023-02-15T03:51:55;41.63;;;27.53;;
2119;SDS011;1066;52.540;13.420;2023-02-15T03:54:25;39.97;;;28.37;;
2119;SDS011;1066;52.540;13.420;2023-02-15T03:57:12;41.80;;;27.80;;
2119;SDS011;1066;52.540;13.420;2023-02-15T03:59:57;42.07;;;28.40;;
2119;SDS011;1066;52.540;13.420;2023-02-15T04:03:07;47.33;;;30.43;;
2119;SDS011;1066;52.540;13.420;2023-02-15T04:05:26;44.17;;;28.90;;
2119;SDS011;1066;52.540;13.420;2023-02-15T04:07:51;42.43;;;28.97;;
2119;SDS011;1066;52.540;13.420;2023-02-15T04:10:16;41.77;;;29.07;;
2119;SDS011;1066;52.540;13.420;2023-02-15T04:13:00;39.83;;;28.03;;
2119;SDS011;1066;52.540;13.420;2023-02-15T04:15:25;48.00;;;29.70;;
2119;SDS011;1066;52.540;13.420;2023-02-15T04:18:09;49.13;;;30.83;;
2119;SDS011;1066;52.540;13.420;2023-02-15T04:20:34;45.27;;;28.30;;
2119;SDS011;1066;52.540;13.420;2023-02-15T04:23:18;40.07;;;28.13;;
2119;SDS011;1066;52.540;13.420;2023-02-15T04:26:05;42.53;;;27.90;;
2119;SDS011;1066;52.540;13.420;2023-02-15T04:28:30;42.20;;;27.70;;
2119;SDS011;1066;52.540;13.420;2023-02-15T04:30:55;43.40;;;29.10;;
2119;SDS011;1066;52.540;13.420;2023-02-15T04:33:20;42.60;;;27.83;;
2119;SDS011;1066;52.540;13.420;2023-02-15T04:35:46;43.33;;;27.53;;
2119;SDS011;1066;52.540;13.420;2023-02-15T04:38:11;41.70;;;25.60;;
2119;SDS011;1066;52.540;13.420;2023-02-15T04:40:36;38.67;;;26.93;;
2119;SDS011;1066;52.540;13.420;2023-02-15T04:43:01;43.57;;;29.80;;
2119;SDS011;1066;52.540;13.420;2023-02-15T04:45:26;44.33;;;28.27;;
2119;SDS011;1066;52.540;13.420;2023-02-15T04:47:52;36.30;;;24.87;;
2119;SDS011;1066;52.540;13.420;2023-02-15T04:50:17;44.23;;;26.57;;
2119;SDS011;1066;52.540;13.420;2023-02-15T04:52:43;44.50;;;27.40;;
2119;SDS011;1066;52.540;13.420;2023-02-15T04:55:08;40.57;;;25.33;;
2119;SDS011;1066;52.540;13.420;2023-02-15T04:57:33;40.37;;;28.80;;
2119;SDS011;1066;52.540;13.420;2023-02-15T04:59:58;35.97;;;25.97;;
2119;SDS011;1066;52.540;13.420;2023-02-15T05:02:24;40.60;;;28.10;;
2119;SDS011;1066;52.540;13.420;2023-02-15T05:04:49;42.77;;;27.23;;
2119;SDS011;1066;52.540;13.420;2023-02-15T05:07:16;37.17;;;26.87;;
2119;SDS011;1066;52.540;13.420;2023-02-15T05:09:42;41.13;;;26.40;;
2119;SDS011;1066;52.540;13.420;2023-02-15T05:12:08;42.27;;;27.33;;
2119;SDS011;1066;52.540;13.420;2023-02-15T05:14:33;42.03;;;27.83;;
2119;SDS011;1066;52.540;13.420;2023-02-15T05:16:58;37.50;;;24.80;;
2119;SDS011;1066;52.540;13.420;2023-02-15T05:19:26;41.77;;;25.70;;
2119;SDS011;1066;52.540;13.420;2023-02-15T05:21:51;36.30;;;24.70;;
2119;SDS011;1066;52.540;13.420;2023-02-15T05:24:16;40.10;;;26.17;;
2119;SDS011;1066;52.540;13.420;2023-02-15T05:27:00;37.20;;;25.70;;
2119;SDS011;1066;52.540;13.420;2023-02-15T05:29:44;41.47;;;25.23;;
2119;SDS011;1066;52.540;13.420;2023-02-15T05:32:10;40.40;;;27.10;;
2119;SDS011;1066;52.540;13.420;2023-02-15T05:34:37;37.07;;;26.13;;
2119;SDS011;1066;52.540;13.420;2023-02-15T05:37:02;39.80;;;26.33;;
2119;SDS011;1066;52.540;13.420;2023-02-15T05:39:27;38.90;;;25.30;;
2119;SDS011;1066;52.540;13.420;2023-02-15T05:41:52;45.20;;;26.30;;
2119;SDS011;1066;52.540;13.420;2023-02-15T05:44:17;41.67;;;25.90;;
2119;SDS011;1066;52.540;13.420;2023-02-15T05:46:43;43.10;;;27.20;;
2119;SDS011;1066;52.540;13.420;2023-02-15T05:49:08;38.70;;;27.13;;
2119;SDS011;1066;52.540;13.420;2023-02-15T05:51:33;39.80;;;26.40;;
2119;SDS011;1066;52.540;13.420;2023-02-15T05:53:58;42.87;;;26.00;;
2119;SDS011;1066;52.540;13.420;2023-02-15T05:56:23;41.73;;;26.40;;
2119;SDS011;1066;52.540;13.420;2023-02-15T05:58:49;44.40;;;26.70;;
2119;SDS011;1066;52.540;13.420;2023-02-15T06:01:15;45.20;;;29.00;;
2119;SDS011;1066;52.540;13.420;2023-02-15T06:03:42;45.70;;;27.33;;
2119;SDS011;1066;52.540;13.420;2023-02-15T06:06:07;40.40;;;25.80;;
2119;SDS011;1066;52.540;13.420;2023-02-15T06:08:33;41.13;;;27.80;;
2119;SDS011;1066;52.540;13.420;2023-02-15T06:10:58;55.80;;;28.80;;
2119;SDS011;1066;52.540;13.420;2023-02-15T06:13:23;41.87;;;26.53;;
2119;SDS011;1066;52.540;13.420;2023-02-15T06:15:49;39.73;;;24.60;;
2119;SDS011;1066;52.540;13.420;2023-02-15T06:18:14;39.73;;;26.53;;
2119;SDS011;1066;52.540;13.420;2023-02-15T06:20:39;46.20;;;28.43;;
2119;SDS011;1066;52.540;13.420;2023-02-15T06:23:04;42.00;;;27.87;;
2119;SDS011;1066;52.540;13.420;2023-02-15T06:25:29;40.80;;;26.87;;
2119;SDS011;1066;52.540;13.420;2023-02-15T06:27:55;41.90;;;28.30;;
2119;SDS011;1066;52.540;13.420;2023-02-15T06:30:20;45.23;;;28.30;;
2119;SDS011;1066;52.540;13.420;2023-02-15T06:32:45;41.60;;;28.47;;
2119;SDS011;1066;52.540;13.420;2023-02-15T06:35:10;43.10;;;28.13;;
2119;SDS011;1066;52.540;13.420;2023-02-15T06:37:36;48.27;;;27.80;;
2119;SDS011;1066;52.540;13.420;2023-02-15T06:40:01;42.00;;;27.80;;
2119;SDS011;1066;52.540;13.420;2023-02-15T06:42:27;39.93;;;26.23;;
2119;SDS011;1066;52.540;13.420;2023-02-15T06:44:52;42.10;;;26.50;;
2119;SDS011;1066;52.540;13.420;2023-02-15T06:47:17;38.67;;;25.30;;
2119;SDS011;1066;52.540;13.420;2023-02-15T06:49:42;48.40;;;27.20;;
2119;SDS011;1066;52.540;13.420;2023-02-15T06:52:07;46.93;;;27.87;;
2119;SDS011;1066;52.540;13.420;2023-02-15T06:54:33;50.63;;;28.83;;
2119;SDS011;1066;52.540;13.420;2023-02-15T06:56:58;45.27;;;27.70;;
2119;SDS011;1066;52.540;13.420;2023-02-15T06:59:23;44.27;;;28.37;;
2119;SDS011;1066;52.540;13.420;2023-02-15T07:01:48;45.10;;;28.00;;
2119;SDS011;1066;52.540;13.420;2023-02-15T07:04:16;48.00;;;27.30;;
2119;SDS011;1066;52.540;13.420;2023-02-15T07:06:41;47.90;;;28.40;;
2119;SDS011;1066;52.540;13.420;2023-02-15T07:09:07;45.80;;;26.80;;
2119;SDS011;1066;52.540;13.420;2023-02-15T07:11:32;50.30;;;27.50;;
2119;SDS011;1066;52.540;13.420;2023-02-15T07:14:16;50.90;;;28.80;;
2119;SDS011;1066;52.540;13.420;2023-02-15T07:16:41;44.57;;;27.27;;
2119;SDS011;1066;52.540;13.420;2023-02-15T07:19:06;47.10;;;29.30;;
2119;SDS011;1066;52.540;13.420;2023-02-15T07:21:32;46.77;;;29.33;;
2119;SDS011;1066;52.540;13.420;2023-02-15T07:23:57;48.40;;;27.40;;
2119;SDS011;1066;52.540;13.420;2023-02-15T07:26:23;48.37;;;27.33;;
2119;SDS011;1066;52.540;13.420;2023-02-15T07:28:48;48.63;;;29.53;;
2119;SDS011;1066;52.540;13.420;2023-02-15T07:31:13;50.40;;;30.30;;
2119;SDS011;1066;52.540;13.420;2023-02-15T07:33:39;46.23;;;28.70;;
2119;SDS011;1066;52.540;13.420;2023-02-15T07:36:04;53.90;;;31.10;;
2119;SDS011;1066;52.540;13.420;2023-02-15T07:38:31;48.80;;;29.20;;
2119;SDS011;1066;52.540;13.420;2023-02-15T07:40:57;49.77;;;27.20;;
2119;SDS011;1066;52.540;13.420;2023-02-15T07:43:22;53.07;;;29.63;;
2119;SDS011;1066;52.540;13.420;2023-02-15T07:45:47;50.20;;;28.50;;
2119;SDS011;1066;52.540;13.420;2023-02-15T07:48:13;51.77;;;29.77;;
2119;SDS011;1066;52.540;13.420;2023-02-15T07:50:38;52.83;;;29.20;;
2119;SDS011;1066;52.540;13.420;2023-02-15T07:53:03;45.93;;;27.90;;
2119;SDS011;1066;52.540;13.420;2023-02-15T07:55:29;51.20;;;28.07;;
2119;SDS011;1066;52.540;13.420;2023-02-15T07:57:54;51.53;;;30.50;;
2119;SDS011;1066;52.540;13.420;2023-02-15T08:00:20;58.03;;;31.77;;
2119;SDS011;1066;52.540;13.420;2023-02-15T08:02:50;48.60;;;28.67;;
2119;SDS011;1066;52.540;13.420;2023-02-15T08:05:34;43.10;;;25.97;;
2119;SDS011;1066;52.540;13.420;2023-02-15T08:07:59;45.87;;;27.80;;
2119;SDS011;1066;52.540;13.420;2023-02-15T08:10:24;50.33;;;32.00;;
2119;SDS011;1066;52.540;13.420;2023-02-15T08:13:09;46.03;;;27.93;;
2119;SDS011;1066;52.540;13.420;2023-02-15T08:15:34;45.83;;;27.30;;
2119;SDS011;1066;52.540;13.420;2023-02-15T08:18:00;51.50;;;28.27;;
2119;SDS011;1066;52.540;13.420;2023-02-15T08:20:25;43.80;;;27.40;;
2119;SDS011;1066;52.540;13.420;2023-02-15T08:22:51;47.03;;;30.67;;
2119;SDS011;1066;52.540;13.420;2023-02-15T08:25:16;44.07;;;28.90;;
2119;SDS011;1066;52.540;13.420;2023-02-15T08:27:42;51.97;;;30.90;;
2119;SDS011;1066;52.540;13.420;2023-02-15T08:30:07;47.27;;;29.37;;
2119;SDS011;1066;52.540;13.420;2023-02-15T08:32:33;48.57;;;30.27;;
2119;SDS011;1066;52.540;13.420;2023-02-15T08:34:58;48.20;;;30.80;;
2119;SDS011;1066;52.540;13.420;2023-02-15T08:37:23;51.87;;;29.37;;
2119;SDS011;1066;52.540;13.420;2023-02-15T08:39:49;47.83;;;29.50;;
2119;SDS011;1066;52.540;13.420;2023-02-15T08:42:14;49.83;;;30.10;;
2119;SDS011;1066;52.540;13.420;2023-02-15T08:44:39;58.10;;;33.00;;
2119;SDS011;1066;52.540;13.420;2023-02-15T08:47:04;52.70;;;31.67;;
2119;SDS011;1066;52.540;13.420;2023-02-15T08:49:30;51.63;;;31.33;;
2119;SDS011;1066;52.540;13.420;2023-02-15T08:51:55;47.20;;;30.30;;
2119;SDS011;1066;52.540;13.420;2023-02-15T08:54:20;45.20;;;29.00;;
2119;SDS011;1066;52.540;13.420;2023-02-15T08:56:46;45.60;;;28.40;;
2119;SDS011;1066;52.540;13.420;2023-02-15T08:59:13;41.30;;;27.97;;
2119;SDS011;1066;52.540;13.420;2023-02-15T09:01:38;46.07;;;30.33;;
2119;SDS011;1066;52.540;13.420;2023-02-15T09:04:04;50.73;;;28.60;;
2119;SDS011;1066;52.540;13.420;2023-02-15T09:06:30;58.20;;;29.77;;
2119;SDS011;1066;52.540;13.420;2023-02-15T09:08:56;48.70;;;29.07;;
2119;SDS011;1066;52.540;13.420;2023-02-15T09:13:51;44.67;;;27.67;;
2119;SDS011;1066;52.540;13.420;2023-02-15T09:16:16;39.63;;;27.53;;
2119;SDS011;1066;52.540;13.420;2023-02-15T09:18:42;43.10;;;29.43;;
2119;SDS011;1066;52.540;13.420;2023-02-15T09:21:08;42.43;;;28.97;;
2119;SDS011;1066;52.540;13.420;2023-02-15T09:23:38;50.93;;;27.83;;
2119;SDS011;1066;52.540;13.420;2023-02-15T09:26:05;38.37;;;26.23;;
2119;SDS011;1066;52.540;13.420;2023-02-15T09:28:30;42.40;;;26.80;;
2119;SDS011;1066;52.540;13.420;2023-02-15T09:31:03;44.30;;;25.40;;
2119;SDS011;1066;52.540;13.420;2023-02-15T09:33:29;42.87;;;26.63;;
2119;SDS011;1066;52.540;13.420;2023-02-15T09:35:54;45.33;;;26.93;;
2119;SDS011;1066;52.540;13.420;2023-02-15T09:38:19;41.00;;;26.90;;
2119;SDS011;1066;52.540;13.420;2023-02-15T09:40:49;41.90;;;27.90;;
2119;SDS011;1066;52.540;13.420;2023-02-15T09:43:28;42.03;;;25.83;;
2119;SDS011;1066;52.540;13.420;2023-02-15T09:48:41;36.03;;;26.17;;
2119;SDS011;1066;52.540;13.420;2023-02-15T09:51:12;48.90;;;27.93;;
2119;SDS011;1066;52.540;13.420;2023-02-15T09:56:33;42.30;;;28.03;;
2119;SDS011;1066;52.540;13.420;2023-02-15T09:59:17;42.60;;;26.80;;
2119;SDS011;1066;52.540;13.420;2023-02-15T10:01:54;37.20;;;25.10;;
2119;SDS011;1066;52.540;13.420;2023-02-15T10:04:35;35.57;;;23.30;;
2119;SDS011;1066;52.540;13.420;2023-02-15T10:10:03;39.33;;;27.30;;
2119;SDS011;1066;52.540;13.420;2023-02-15T10:12:57;37.87;;;25.63;;
2119;SDS011;1066;52.540;13.420;2023-02-15T10:20:23;38.17;;;24.20;;
2119;SDS011;1066;52.540;13.420;2023-02-15T10:23:05;35.57;;;24.80;;
2119;SDS011;1066;52.540;13.420;2023-02-15T10:28:01;37.00;;;23.57;;
2119;SDS011;1066;52.540;13.420;2023-02-15T10:30:32;35.27;;;23.33;;
2119;SDS011;1066;52.540;13.420;2023-02-15T10:33:02;36.90;;;24.57;;
2119;SDS011;1066;52.540;13.420;2023-02-15T10:35:47;42.27;;;23.63;;
2119;SDS011;1066;52.540;13.420;2023-02-15T10:38:19;59.90;;;25.77;;
2119;SDS011;1066;52.540;13.420;2023-02-15T10:40:58;38.50;;;24.80;;
2119;SDS011;1066;52.540;13.420;2023-02-15T10:48:53;58.20;;;23.80;;
2119;SDS011;1066;52.540;13.420;2023-02-15T10:51:46;31.53;;;21.90;;
2119;SDS011;1066;52.540;13.420;2023-02-15T10:54:22;37.87;;;23.50;;
2119;SDS011;1066;52.540;13.420;2023-02-15T10:56:55;33.77;;;22.70;;
2119;SDS011;1066;52.540;13.420;2023-02-15T11:04:38;28.30;;;20.30;;
2119;SDS011;1066;52.540;13.420;2023-02-15T11:07:06;30.07;;;21.73;;
2119;SDS011;1066;52.540;13.420;2023-02-15T11:09:36;31.83;;;22.63;;
2119;SDS011;1066;52.540;13.420;2023-02-15T11:12:02;28.13;;;20.40;;
2119;SDS011;1066;52.540;13.420;2023-02-15T11:14:39;26.20;;;21.23;;
2119;SDS011;1066;52.540;13.420;2023-02-15T11:17:12;27.40;;;21.30;;
2119;SDS011;1066;52.540;13.420;2023-02-15T11:19:41;32.70;;;22.87;;
2119;SDS011;1066;52.540;13.420;2023-02-15T11:22:10;31.50;;;22.13;;
2119;SDS011;1066;52.540;13.420;2023-02-15T11:24:44;26.57;;;20.03;;
2119;SDS011;1066;52.540;13.420;2023-02-15T11:32:29;37.07;;;24.77;;
2119;SDS011;1066;52.540;13.420;2023-02-15T11:40:30;29.90;;;21.10;;
2119;SDS011;1066;52.540;13.420;2023-02-15T11:42:59;30.70;;;22.03;;
2119;SDS011;1066;52.540;13.420;2023-02-15T11:47:50;25.40;;;20.70;;
2119;SDS011;1066;52.540;13.420;2023-02-15T11:50:18;29.13;;;21.40;;
2119;SDS011;1066;52.540;13.420;2023-02-15T11:52:47;27.00;;;20.33;;
2119;SDS011;1066;52.540;13.420;2023-02-15T11:55:12;27.20;;;20.73;;
2119;SDS011;1066;52.540;13.420;2023-02-15T11:57:40;29.63;;;20.70;;
2119;SDS011;1066;52.540;13.420;2023-02-15T12:02:40;31.77;;;21.87;;
2119;SDS011;1066;52.540;13.420;2023-02-15T12:05:11;26.00;;;20.10;;
2119;SDS011;1066;52.540;13.420;2023-02-15T12:08:39;28.80;;;20.80;;
2119;SDS011;1066;52.540;13.420;2023-02-15T12:13:30;24.57;;;19.60;;
2119;SDS011;1066;52.540;13.420;2023-02-15T12:15:56;28.73;;;21.90;;
2119;SDS011;1066;52.540;13.420;2023-02-15T12:20:53;35.27;;;19.60;;
2119;SDS011;1066;52.540;13.420;2023-02-15T12:23:23;27.50;;;20.43;;
2119;SDS011;1066;52.540;13.420;2023-02-15T12:25:49;27.90;;;19.10;;
2119;SDS011;1066;52.540;13.420;2023-02-15T12:28:29;26.47;;;18.13;;
2119;SDS011;1066;52.540;13.420;2023-02-15T12:30:57;25.13;;;19.63;;
2119;SDS011;1066;52.540;13.420;2023-02-15T12:35:55;26.80;;;19.80;;
2119;SDS011;1066;52.540;13.420;2023-02-15T12:38:23;24.77;;;18.80;;
2119;SDS011;1066;52.540;13.420;2023-02-15T12:41:19;22.93;;;18.00;;
2119;SDS011;1066;52.540;13.420;2023-02-15T12:43:47;27.50;;;19.10;;
2119;SDS011;1066;52.540;13.420;2023-02-15T12:46:27;44.30;;;22.20;;
2119;SDS011;1066;52.540;13.420;2023-02-15T12:51:51;37.33;;;21.27;;
2119;SDS011;1066;52.540;13.420;2023-02-15T12:54:17;24.93;;;20.30;;
2119;SDS011;1066;52.540;13.420;2023-02-15T12:56:43;23.40;;;18.67;;
2119;SDS011;1066;52.540;13.420;2023-02-15T12:59:12;25.63;;;18.97;;
2119;SDS011;1066;52.540;13.420;2023-02-15T13:01:38;29.63;;;20.10;;
2119;SDS011;1066;52.540;13.420;2023-02-15T13:04:04;27.17;;;19.83;;
2119;SDS011;1066;52.540;13.420;2023-02-15T13:06:31;24.10;;;17.43;;
2119;SDS011;1066;52.540;13.420;2023-02-15T13:09:12;25.03;;;20.47;;
2119;SDS011;1066;52.540;13.420;2023-02-15T13:11:38;25.70;;;20.33;;
2119;SDS011;1066;52.540;13.420;2023-02-15T13:14:28;31.63;;;19.60;;
2119;SDS011;1066;52.540;13.420;2023-02-15T13:16:51;48.17;;;25.20;;
2119;SDS011;1066;52.540;13.420;2023-02-15T13:19:19;77.87;;;29.30;;
2119;SDS011;1066;52.540;13.420;2023-02-15T13:21:46;58.97;;;23.13;;
2119;SDS011;1066;52.540;13.420;2023-02-15T13:26:37;31.67;;;21.37;;
2119;SDS011;1066;52.540;13.420;2023-02-15T13:29:06;25.77;;;19.70;;
2119;SDS011;1066;52.540;13.420;2023-02-15T13:31:33;28.97;;;21.27;;
2119;SDS011;1066;52.540;13.420;2023-02-15T13:34:20;24.30;;;19.90;;
2119;SDS011;1066;52.540;13.420;2023-02-15T13:39:47;26.83;;;20.10;;
2119;SDS011;1066;52.540;13.420;2023-02-15T13:42:22;24.53;;;19.77;;
2119;SDS011;1066;52.540;13.420;2023-02-15T13:52:23;25.73;;;20.47;;
2119;SDS011;1066;52.540;13.420;2023-02-15T13:57:48;25.03;;;19.60;;
2119;SDS011;1066;52.540;13.420;2023-02-15T14:07:50;26.70;;;21.00;;
2119;SDS011;1066;52.540;13.420;2023-02-15T14:13:05;21.13;;;18.80;;
2119;SDS011;1066;52.540;13.420;2023-02-15T14:18:04;21.80;;;17.40;;
2119;SDS011;1066;52.540;13.420;2023-02-15T14:25:27;27.77;;;20.07;;
2119;SDS011;1066;52.540;13.420;2023-02-15T14:28:05;21.87;;;18.27;;
2119;SDS011;1066;52.540;13.420;2023-02-15T14:30:34;26.20;;;19.70;;
2119;SDS011;1066;52.540;13.420;2023-02-15T14:33:01;20.57;;;17.70;;
2119;SDS011;1066;52.540;13.420;2023-02-15T14:35:29;20.17;;;16.30;;
2119;SDS011;1066;52.540;13.420;2023-02-15T14:37:58;25.10;;;18.10;;
2119;SDS011;1066;52.540;13.420;2023-02-15T14:43:18;22.30;;;16.80;;
2119;SDS011;1066;52.540;13.420;2023-02-15T14:46:03;25.17;;;17.03;;
2119;SDS011;1066;52.540;13.420;2023-02-15T14:48:33;20.50;;;18.37;;
2119;SDS011;1066;52.540;13.420;2023-02-15T14:51:02;19.20;;;16.67;;
2119;SDS011;1066;52.540;13.420;2023-02-15T14:58:32;23.27;;;17.83;;
2119;SDS011;1066;52.540;13.420;2023-02-15T15:01:03;18.43;;;15.73;;
2119;SDS011;1066;52.540;13.420;2023-02-15T15:03:30;20.43;;;16.80;;
2119;SDS011;1066;52.540;13.420;2023-02-15T15:05:56;24.37;;;18.27;;
2119;SDS011;1066;52.540;13.420;2023-02-15T15:08:25;18.47;;;15.80;;
2119;SDS011;1066;52.540;13.420;2023-02-15T15:10:51;22.13;;;18.03;;
2119;SDS011;1066;52.540;13.420;2023-02-15T15:18:54;23.03;;;18.50;;
2119;SDS011;1066;52.540;13.420;2023-02-15T15:24:05;20.53;;;17.07;;
2119;SDS011;1066;52.540;13.420;2023-02-15T15:26:31;23.37;;;18.43;;
2119;SDS011;1066;52.540;13.420;2023-02-15T15:29:01;24.70;;;19.07;;
2119;SDS011;1066;52.540;13.420;2023-02-15T15:31:33;28.20;;;18.80;;
2119;SDS011;1066;52.540;13.420;2023-02-15T15:44:20;27.20;;;18.63;;
2119;SDS011;1066;52.540;13.420;2023-02-15T15:49:26;21.83;;;16.87;;
2119;SDS011;1066;52.540;13.420;2023-02-15T15:51:53;22.40;;;16.70;;
2119;SDS011;1066;52.540;13.420;2023-02-15T15:54:20;21.77;;;16.90;;
2119;SDS011;1066;52.540;13.420;2023-02-15T15:56:47;20.90;;;17.40;;
2119;SDS011;1066;52.540;13.420;2023-02-15T15:59:18;17.47;;;15.67;;
2119;SDS011;1066;52.540;13.420;2023-02-15T16:01:44;22.00;;;16.90;;
2119;SDS011;1066;52.540;13.420;2023-02-15T16:04:11;19.03;;;15.77;;
2119;SDS011;1066;52.540;13.420;2023-02-15T16:06:37;23.90;;;15.73;;
2119;SDS011;1066;52.540;13.420;2023-02-15T16:09:25;22.93;;;17.70;;
2119;SDS011;1066;52.540;13.420;2023-02-15T16:11:51;24.97;;;17.60;;
2119;SDS011;1066;52.540;13.420;2023-02-15T16:14:21;22.43;;;16.47;;
2119;SDS011;1066;52.540;13.420;2023-02-15T16:16:49;22.20;;;17.90;;
2119;SDS011;1066;52.540;13.420;2023-02-15T16:19:17;23.83;;;16.67;;
2119;SDS011;1066;52.540;13.420;2023-02-15T16:21:43;20.73;;;16.27;;
2119;SDS011;1066;52.540;13.420;2023-02-15T16:24:13;23.23;;;16.00;;
2119;SDS011;1066;52.540;13.420;2023-02-15T16:29:17;20.37;;;15.50;;
2119;SDS011;1066;52.540;13.420;2023-02-15T16:31:43;20.67;;;16.23;;
2119;SDS011;1066;52.540;13.420;2023-02-15T16:34:17;20.70;;;15.80;;
2119;SDS011;1066;52.540;13.420;2023-02-15T16:36:43;27.60;;;17.93;;
2119;SDS011;1066;52.540;13.420;2023-02-15T16:39:09;20.80;;;17.07;;
2119;SDS011;1066;52.540;13.420;2023-02-15T16:41:35;22.10;;;17.40;;
2119;SDS011;1066;52.540;13.420;2023-02-15T16:44:03;24.87;;;17.10;;
2119;SDS011;1066;52.540;13.420;2023-02-15T16:46:30;20.70;;;17.80;;
2119;SDS011;1066;52.540;13.420;2023-02-15T16:49:00;21.90;;;18.13;;
2119;SDS011;1066;52.540;13.420;2023-02-15T16:51:27;19.20;;;15.73;;
2119;SDS011;1066;52.540;13.420;2023-02-15T16:53:53;22.23;;;17.63;;
2119;SDS011;1066;52.540;13.420;2023-02-15T16:56:23;24.60;;;18.57;;
2119;SDS011;1066;52.540;13.420;2023-02-15T16:58:49;21.93;;;17.00;;
2119;SDS011;1066;52.540;13.420;2023-02-15T17:01:15;22.30;;;17.00;;
2119;SDS011;1066;52.540;13.420;2023-02-15T17:03:41;21.03;;;16.50;;
2119;SDS011;1066;52.540;13.420;2023-02-15T17:06:18;23.13;;;18.70;;
2119;SDS011;1066;52.540;13.420;2023-02-15T17:08:44;24.13;;;18.63;;
2119;SDS011;1066;52.540;13.420;2023-02-15T17:11:16;25.13;;;18.20;;